Tuesday, April 24, 2018, 4:37 AM EDT
Back to Local

KDXR, Danbury Municipal Airport

Location: Danbury, CT, United States Lat: 41.367
Local Time: 4:37 AM EDT ( 8:37 GMT) Lon: -73.483
Time Zone: US/Eastern Elev: 459 ft

Show me the last for .
Show Decoded

2018-04-24 03:53 METAR KDXR 240753Z AUTO 24003KT 10SM CLR 01/M01 A3041 RMK AO2 SLP300 T00061011 $
                 =
2018-04-24 02:53 METAR KDXR 240653Z AUTO 25003KT 10SM CLR 01/M01 A3041 RMK AO2 SLP300 T00111011 $
                 =
2018-04-24 01:53 METAR KDXR 240553Z AUTO 00000KT 10SM CLR 03/M01 A3042 RMK AO2 SLP301 T00281006
                 10128 20022 58006 $ =
2018-04-24 00:53 METAR KDXR 240453Z AUTO 00000KT 10SM CLR 03/M01 A3043 RMK AO2 SLP304 T00331006
                 401781022 $ =
2018-04-23 23:53 METAR KDXR 240353Z AUTO 00000KT 10SM CLR 04/M01 A3044 RMK AO2 SLP307 T00441006 $
                 =
2018-04-23 22:53 METAR KDXR 240253Z AUTO 00000KT 10SM CLR 06/M01 A3044 RMK AO2 SLP307 T00611011
                 50004 $ =
2018-04-23 21:53 METAR KDXR 240153Z 00000KT 10SM CLR 09/M01 A3044 RMK AO2 SLP309 T00941011 $ =
2018-04-23 20:53 METAR KDXR 240053Z 00000KT 10SM CLR 11/M01 A3044 RMK AO2 SLP308 T01061011 $ =
2018-04-23 19:53 METAR KDXR 232353Z 00000KT 10SM CLR 13/M05 A3042 RMK AO2 SLP304 T01281050 10178
                 20128 53002 $ =
2018-04-23 18:53 METAR KDXR 232253Z 20008KT 10SM CLR 14/M06 A3041 RMK AO2 SLP300 T01441061 $ =
2018-04-23 17:53 METAR KDXR 232153Z 19011G16KT 10SM CLR 16/M06 A3042 RMK AO2 SLP302 T01611056 $ =
2018-04-23 16:53 METAR KDXR 232053Z 18008KT 10SM CLR 17/M05 A3042 RMK AO2 SLP302 T01671050 56006
                 $ =
2018-04-23 15:53 METAR KDXR 231953Z 14010KT 10SM CLR 17/M04 A3042 RMK AO2 SLP303 T01671044 $ =
2018-04-23 14:53 METAR KDXR 231853Z 17006KT 10SM CLR 17/M06 A3043 RMK AO2 SLP303 T01721061 $ =
2018-04-23 13:53 METAR KDXR 231753Z 14006KT 10SM CLR 17/M04 A3044 RMK AO2 SLP308 T01671039 10172
                 20050 58019 $ =
2018-04-23 12:53 METAR KDXR 231653Z 16007KT 10SM CLR 17/M06 A3046 RMK AO2 SLP315 T01671061 $ =
2018-04-23 11:53 METAR KDXR 231553Z 34004KT 10SM CLR 16/M07 A3048 RMK AO2 SLP321 T01561067 $ =
2018-04-23 10:53 METAR KDXR 231453Z 12004KT 10SM CLR 14/M06 A3049 RMK AO2 SLP326 T01441056 55000
                 $ =
2018-04-23 09:53 METAR KDXR 231353Z 06006KT 10SM CLR 13/M05 A3049 RMK AO2 SLP325 T01281050 $ =
2018-04-23 08:53 METAR KDXR 231253Z 05007KT 10SM CLR 09/M05 A3049 RMK AO2 SLP323 T00941050 $ =
2018-04-23 07:53 METAR KDXR 231153Z 00000KT 10SM CLR 05/M02 A3049 RMK AO2 SLP327 T00501017 10050
                 21022 51015 $ =
2018-04-23 06:53 METAR KDXR 231053Z 00000KT 10SM CLR M01/M03 A3049 RMK AO2 SLP325 T10061028 $ =
2018-04-23 05:53 METAR KDXR 230953Z AUTO 00000KT 10SM CLR M01/M04 A3046 RMK AO2 SLP318 T10111039
                 $ =
2018-04-23 04:53 METAR KDXR 230853Z AUTO 00000KT 10SM CLR M01/M03 A3045 RMK AO2 SLP312 T10061028
                 53015 =

Support USWX by starting your Amazon purchase here.